Main page
METAR-TAF:

METAR-TAF

Airports :

Itaituba Airport

Itaituba, Pará, Brazil

latitude: 04-15S, longitude: 056-00W, elevation: 34 m

Current weather observation

The report was made 4 hours and 57 minutes ago, at 21:00 UTC
Wind 4 kt from the South/Southeast
Temperature 33°C
Humidity 59%
Pressure 1006 hPa
Visibility: 8000 m
Few clouds at a height of 2300 ft
Few clouds at a height of 2500 ft, Towering cumulus.

METAR: SBIH 172100Z 15004KT 8000 FEW023 FEW025TCU 33/24 Q1006

Time: 22:57 (01:57 UTC)

Forecast

The report was made 3 hours and 57 minutes ago, at 22:00 UTC
Forecast valid from 18 at 00 UTC to 18 at 12 UTC
Wind kt from the North
Visibility 10 km or more
Few clouds at a height of 1500 ft
Becoming
from 18 at 09 UTC to 18 at 11 UTC
Wind 3 kt from the East

TAF: SBIH 172200Z 1800/1812 00000KT 9999 FEW015 TN23/1806Z TX29/1812Z BECMG 1809/1811 09003KT RMK PEH

Weather observations and forecasts of more than 4000 airports (METAR and TAF reports).

The available stations are represented by yellow and red dots on the map.

Hover mouse over dot to see the name of the station.

Then click to see weather observations and forecasts.

To change the map : click on the green buttons with a black cross to zoom in, on the green button with a dash to zoom out, or on the green arrows for adjacent maps.


METAR-TAF: